Kezdőlap
METAR-TAF:

METAR-TAF

Repülőterek :

Dakar, Szenegál

földrajzi szélesség: 14-44N, földrajzi hosszúság: 017-30W, magasság: 27 m

Jelenlegi meteorológiai megfigyelések

A jelentés 1 órával és 55 perccel ezelõtt készült, 06:00 UTC
Északi szél 6 kt
Hőmérséklet 17°C
Páratartalom 88%
Légköri nyomás 1012 hPa
Látótávolság: 8000 m

METAR: GOOY 240600Z 36006KT 8000 NSC 17/15 Q1012 NOSIG

Idő: 07:55 (07:55 UTC)

Előrejelzés

A jelentés 2 órával és 25 perccel ezelõtt készült, 05:30 UTC
Az előrejelzés 24-én 06 óra UTC és 25-én 12 óra UTC között érvényes
Észak-északkeleti szél 12 kt
Látótávolság: 6000 m

TAF: GOOY 240530Z 2406/2512 02012KT 6000 NSC

Meteorológiai megfigyelések és előrejelzések több, mint 4000 repülőtéren (METAR és TAF jelentéseket).

A térképen piros és sárga pontok jelzik az elérhető meteorológiai állomásokat.

Mozgassa az egeret a pont fölött, hogy megjelenjen az állomás neve.

Azután kattintson az időjárási megfigyelések és előrejelzések megtekintéséhez.

A térkép megváltoztatása: kattintson a fekete keresztel jelölt zöld gombra ráközelítéshez, a vonallal jelölt zöld gombra távolításhoz, vagy a zöld nyilakra a szomszédos térképek eléréséhez.


METAR-TAF: